Overview Statistics Trail Chart Weather Telemetry Raw packets
 

This is the latest recevied weather packets stored in our database for station/object KU4DD. If no packets are shown the sender has not sent any weather packets the latest 10 day(s).

<< 2 3 4 5 6 7 8 >>
Time Temp. Humidity Pressure Rain* Wind** Luminosity Snow
1788483671 30° C 75% 1015.9 hPa 0 mm - 0 W/m² -
1788482111 30.56° C 73% 1015.6 hPa 0 mm - 0 W/m² -
1788480876 31.11° C 71% 1015.2 hPa 0 mm - 0 W/m² -
1788479336 31.67° C 67% 1014.9 hPa 0 mm - 0 W/m² -
1788475924 33.89° C 61% 1015.2 hPa 0 mm - 35 W/m² -
1788475602 33.89° C 61% 1014.9 hPa 0 mm - 37 W/m² -
1788474988 34.44° C 59% 1015.2 hPa 0 mm - 40 W/m² -
1788474032 34.44° C 58% 1015.2 hPa 0 mm - 46 W/m² -
1788471558 35.56° C 55% 1015.2 hPa 0 mm - 62 W/m² -
1788469994 35.56° C 54% 1015.2 hPa 0 mm - 250 W/m² -
1788468746 36.11° C 54% 1015.2 hPa 0 mm - 461 W/m² -
1788465960 36.67° C 56% 1015.6 hPa 0 mm - 649 W/m² -
1788465020 36.11° C 54% 1015.6 hPa 0 mm - 619 W/m² -
1788463165 36.11° C 56% 1015.9 hPa 0 mm - 775 W/m² -
1788462236 36.11° C 54% 1016.3 hPa 0 mm - 788 W/m² -
1788460394 36.11° C 55% 1016.6 hPa 0 mm - 246 W/m² -
1788459477 36.67° C 57% 1016.6 hPa 0 mm - 851 W/m² -
1788456407 35.56° C 54% 1016.9 hPa 0 mm - 907 W/m² -
1788455770 36.11° C 56% 1016.9 hPa 0 mm - 904 W/m² -
1788453597 35° C 61% 1017.6 hPa 0 mm - 858 W/m² -
1788451107 34.44° C 67% 1017.9 hPa 0 mm - 105 W/m² -
1788448952 33.33° C 68% 1017.9 hPa 0 mm - 742 W/m² -
1788446785 31.67° C 74% 1017.9 hPa 0 mm - 661 W/m² -
1788445848 31.11° C 76% 1017.9 hPa 0 mm - 626 W/m² -
1788443994 29.44° C 78% 1017.6 hPa 0 mm - 538 W/m² -

* Rain latest hour (hover to see other rain measurements)
** Current wind speed in m/s (hover to see current wind gust speed)